Honolulu, HI

2:41 PM HST on April 24, 2017 (GMT -1000)
Honolulu Harbor Pier 35 | | Change Station

Elev 0 ft 21.32 °N, 157.88 °W | Updated 3 seconds ago

Partly Cloudy
Partly Cloudy
84.4 °F
Feels Like 87 °F
N
8.9
Wind Variable Wind from ESE
Gusts 14.0 mph

Today
High -- | Low -- °F
--% Chance of Precip.
Yesterday
High -- | Low -- °F
Precip. -- in
Pressure 30.06 in
Visibility 10.0 miles
Clouds Few 2500 ft
Scattered Clouds 4600 ft
Heat Index 87 °F
Dew Point 66 °F
Humidity 55%
Rainfall 0.00 in
Snow Depth Not available.
6:05 AM 6:54 PM
Waning Crescent, 3% visible
METAR PHNL 242353Z 10014KT 10SM FEW025 SCT046 30/16 A3005 RMK AO2 PK WND 11027/2305 SLP177 T03000156 10306 20256 58017
Pressure 30.06 in
Visibility 10.0 miles
Clouds Few 2500 ft
Scattered Clouds 4600 ft
Heat Index 87 °F
Dew Point 66 °F
Humidity 55%
Rainfall 0.00 in
Snow Depth Not available.
6:05 AM 6:54 PM
Waning Crescent, 3% visible
METAR PHNL 242353Z 10014KT 10SM FEW025 SCT046 30/16 A3005 RMK AO2 PK WND 11027/2305 SLP177 T03000156 10306 20256 58017

Get Severe Weather Alerts

Thanks for signing up!

Be on the lookout for a verification email in your inbox.

You'll start receiving the daily forecast at 8 AM.

×

10-Day Weather Forecast

Almanac

Astronomy

Apr. 24, 2017 Rise Set
Actual Time
Civil Twilight
Nautical Twilight
Astronomical Twilight
Moon
Length of Visible Light
Length of Day
Tomorrow will be .
, % of the Moon is Illuminated

Today's Extremes

State Highs State Lows

Community

WunderPhotos

WunderBlog® & News

Nearby

Air Quality

  Air Quality AQ Index Pollutant
Not available.

Snow Depth

Station Depth Elevation

Earthquake Activity

City Distance Mag. Time & Date
Minimum magnitude displayed is 2.5.

Coastal Water Temperatures

Place Temperature

Stations

Nearby Weather Stations

Station Location Temp. Windchill Dew Point Humidity Wind Precip. Elev Updated Type
                   

Watches & Warnings

There are currently no watches in effect.